createdAt,value
2017-04-20T00:00:59.568Z,986.55
2017-04-20T00:02:00.179Z,986.50
2017-04-20T00:03:00.766Z,986.49
2017-04-20T00:04:01.356Z,986.52
2017-04-20T00:05:01.963Z,986.55
2017-04-20T00:06:02.554Z,986.51
2017-04-20T00:07:03.145Z,986.50
2017-04-20T00:08:03.751Z,986.51
2017-04-20T00:09:04.357Z,986.47
2017-04-20T00:10:04.947Z,986.52
2017-04-20T00:11:05.539Z,986.51
2017-04-20T00:12:06.129Z,986.48
2017-04-20T00:13:06.742Z,986.49
2017-04-20T00:14:07.354Z,986.47
2017-04-20T00:15:07.941Z,986.44
2017-04-20T00:16:08.537Z,986.41
2017-04-20T00:17:09.124Z,986.44
2017-04-20T00:18:09.720Z,986.48
2017-04-20T00:19:10.314Z,986.47
2017-04-20T00:20:10.902Z,986.43
2017-04-20T00:21:11.494Z,986.45
2017-04-20T00:22:12.083Z,986.48
2017-04-20T00:23:12.680Z,986.45
2017-04-20T00:24:13.273Z,986.41
2017-04-20T00:25:13.880Z,986.44
2017-04-20T00:26:14.492Z,986.41
2017-04-20T00:27:15.097Z,986.46
2017-04-20T00:28:15.693Z,986.47
2017-04-20T00:29:16.284Z,986.43
2017-04-20T00:30:16.873Z,986.45
2017-04-20T00:31:17.463Z,986.39
2017-04-20T00:32:18.054Z,986.38
2017-04-20T00:33:18.660Z,986.38
2017-04-20T00:34:19.265Z,986.35
2017-04-20T00:35:19.854Z,986.36
2017-04-20T00:36:20.445Z,986.34
2017-04-20T00:37:21.039Z,986.36
2017-04-20T00:38:21.625Z,986.35
2017-04-20T00:39:22.215Z,986.34
2017-04-20T00:40:22.806Z,986.37
2017-04-20T00:41:23.402Z,986.30
2017-04-20T00:42:23.989Z,986.37
2017-04-20T00:43:24.584Z,986.35
2017-04-20T00:44:25.174Z,986.34
2017-04-20T00:45:25.763Z,986.39
2017-04-20T00:46:26.369Z,986.36
2017-04-20T00:47:26.976Z,986.34
2017-04-20T00:48:27.581Z,986.40
2017-04-20T00:49:28.176Z,986.40
2017-04-20T00:50:28.763Z,986.40
2017-04-20T00:51:29.355Z,986.38
2017-04-20T00:52:29.966Z,986.37
2017-04-20T00:53:30.553Z,986.34
2017-04-20T00:54:31.164Z,986.35
2017-04-20T00:55:31.752Z,986.38
2017-04-20T00:56:32.342Z,986.34
2017-04-20T00:57:32.948Z,986.35
2017-04-20T00:58:33.537Z,986.34
2017-04-20T00:59:34.127Z,986.34
2017-04-20T01:00:34.718Z,986.37
2017-04-20T01:01:35.324Z,986.35
2017-04-20T01:02:35.913Z,986.35
2017-04-20T01:03:36.503Z,986.39
2017-04-20T01:04:37.098Z,986.41
2017-04-20T01:05:37.692Z,986.41
2017-04-20T01:06:38.284Z,986.44
2017-04-20T01:07:38.873Z,986.43
2017-04-20T01:08:39.469Z,986.44
2017-04-20T01:09:40.058Z,986.40
2017-04-20T01:10:40.673Z,986.39
2017-04-20T01:11:41.278Z,986.43
2017-04-20T01:12:41.866Z,986.40
2017-04-20T01:13:42.462Z,986.39
2017-04-20T01:14:43.050Z,986.40
2017-04-20T01:15:43.654Z,986.44
2017-04-20T01:16:44.247Z,986.44
2017-04-20T01:17:44.842Z,986.42
2017-04-20T01:18:45.428Z,986.41
2017-04-20T01:19:46.021Z,986.37
2017-04-20T01:20:46.632Z,986.39
2017-04-20T01:21:47.242Z,986.37
2017-04-20T01:22:47.828Z,986.33
2017-04-20T01:23:48.417Z,986.36
2017-04-20T01:24:49.009Z,986.34
2017-04-20T01:25:49.605Z,986.34
2017-04-20T01:26:50.211Z,986.36
2017-04-20T01:27:50.805Z,986.28
2017-04-20T01:28:51.394Z,986.34
2017-04-20T01:29:51.989Z,986.30
2017-04-20T01:30:52.577Z,986.28
2017-04-20T01:31:53.173Z,986.27
2017-04-20T01:32:53.779Z,986.27
2017-04-20T01:33:54.369Z,986.28
2017-04-20T01:34:54.979Z,986.24
2017-04-20T01:35:55.550Z,986.25
2017-04-20T01:36:56.143Z,986.24
2017-04-20T01:37:56.734Z,986.25
2017-04-20T01:38:57.326Z,986.26
2017-04-20T01:39:57.922Z,986.25
2017-04-20T01:40:58.509Z,986.22
2017-04-20T01:41:59.100Z,986.19
2017-04-20T01:42:59.690Z,986.21
2017-04-20T01:44:00.279Z,986.23
2017-04-20T01:45:00.877Z,986.21
2017-04-20T01:46:01.469Z,986.21
2017-04-20T01:47:02.057Z,986.15
2017-04-20T01:48:02.648Z,986.17
2017-04-20T01:49:03.253Z,986.19
2017-04-20T01:50:03.843Z,986.23
2017-04-20T01:51:04.454Z,986.15
2017-04-20T01:52:05.039Z,986.13
2017-04-20T01:53:05.629Z,986.11
2017-04-20T01:54:06.225Z,986.16
2017-04-20T01:55:06.813Z,986.13
2017-04-20T01:56:07.418Z,986.11
2017-04-20T01:57:08.024Z,986.12
2017-04-20T01:58:08.615Z,986.13
2017-04-20T01:59:09.206Z,986.15
2017-04-20T02:00:09.797Z,986.13
2017-04-20T02:01:10.385Z,986.09
2017-04-20T02:02:10.976Z,986.11
2017-04-20T02:03:11.566Z,986.13
2017-04-20T02:04:12.156Z,986.16
2017-04-20T02:05:12.751Z,986.16
2017-04-20T02:06:13.341Z,986.16
2017-04-20T02:07:13.930Z,986.22
2017-04-20T02:08:14.519Z,986.20
2017-04-20T02:09:15.110Z,986.22
2017-04-20T02:10:15.700Z,986.21
2017-04-20T02:11:16.291Z,986.17
2017-04-20T02:12:16.882Z,986.19
2017-04-20T02:13:17.477Z,986.17
2017-04-20T02:14:18.110Z,986.19
2017-04-20T02:15:18.697Z,986.21
2017-04-20T02:16:19.288Z,986.17
2017-04-20T02:17:19.879Z,986.22
2017-04-20T02:18:20.474Z,986.22
2017-04-20T02:19:21.062Z,986.17
2017-04-20T02:20:21.655Z,986.21
2017-04-20T02:21:22.243Z,986.22
2017-04-20T02:22:22.847Z,986.21
2017-04-20T02:23:23.437Z,986.24
2017-04-20T02:24:24.028Z,986.23
2017-04-20T02:25:24.616Z,986.22
2017-04-20T02:26:25.207Z,986.19
2017-04-20T02:27:25.796Z,986.19
2017-04-20T02:28:26.387Z,986.23
2017-04-20T02:29:26.977Z,986.17
2017-04-20T02:30:27.566Z,986.20
2017-04-20T02:31:28.156Z,986.26
2017-04-20T02:32:28.748Z,986.21
2017-04-20T02:33:29.336Z,986.20
2017-04-20T02:34:29.926Z,986.24
2017-04-20T02:35:30.518Z,986.28
2017-04-20T02:36:31.107Z,986.27
2017-04-20T02:37:31.698Z,986.22
2017-04-20T02:38:32.310Z,986.26
2017-04-20T02:39:32.896Z,986.24
2017-04-20T02:40:33.487Z,986.26
2017-04-20T02:41:34.081Z,986.32
2017-04-20T02:42:34.674Z,986.25
2017-04-20T02:43:35.268Z,986.27
2017-04-20T02:44:35.855Z,986.28
2017-04-20T02:45:36.445Z,986.25
2017-04-20T02:46:37.033Z,986.32
2017-04-20T02:47:37.623Z,986.30
2017-04-20T02:48:38.212Z,986.31
2017-04-20T02:49:38.802Z,986.30
2017-04-20T02:50:39.392Z,986.30
2017-04-20T02:51:39.981Z,986.30
2017-04-20T02:52:40.570Z,986.32
2017-04-20T02:53:41.166Z,986.32
2017-04-20T02:54:41.752Z,986.34
2017-04-20T02:55:42.360Z,986.36
2017-04-20T02:56:42.946Z,986.29
2017-04-20T02:57:43.536Z,986.30
2017-04-20T02:58:44.125Z,986.35
2017-04-20T02:59:44.718Z,986.32
2017-04-20T03:00:45.319Z,986.37
2017-04-20T03:01:45.910Z,986.34
2017-04-20T03:02:46.499Z,986.32
2017-04-20T03:03:47.094Z,986.30
2017-04-20T03:04:47.681Z,986.27
2017-04-20T03:05:48.270Z,986.29
2017-04-20T03:06:48.939Z,986.29
2017-04-20T03:07:49.527Z,986.23
2017-04-20T03:08:50.132Z,986.26
2017-04-20T03:09:50.721Z,986.25
2017-04-20T03:10:51.311Z,986.22
2017-04-20T03:11:51.901Z,986.22
2017-04-20T03:12:52.491Z,986.20
2017-04-20T03:13:53.096Z,986.16
2017-04-20T03:14:53.691Z,986.16
2017-04-20T03:15:54.277Z,986.13
2017-04-20T03:16:54.866Z,986.15
2017-04-20T03:17:55.472Z,986.16
2017-04-20T03:18:56.078Z,986.16
2017-04-20T03:19:56.682Z,986.14
2017-04-20T03:20:57.271Z,986.19
2017-04-20T03:21:57.860Z,986.18
2017-04-20T03:22:58.451Z,986.18
2017-04-20T03:23:59.040Z,986.15
2017-04-20T03:24:59.628Z,986.18
2017-04-20T03:26:00.220Z,986.21
2017-04-20T03:27:00.809Z,986.19
2017-04-20T03:28:01.413Z,986.20
2017-04-20T03:29:02.009Z,986.20
2017-04-20T03:30:02.619Z,986.19
2017-04-20T03:31:03.205Z,986.24
2017-04-20T03:32:03.796Z,986.17
2017-04-20T03:33:04.390Z,986.15
2017-04-20T03:34:04.984Z,986.18
2017-04-20T03:35:05.570Z,986.17
2017-04-20T03:36:06.159Z,986.18
2017-04-20T03:37:06.755Z,986.17
2017-04-20T03:38:07.347Z,986.16
2017-04-20T03:39:07.934Z,986.14
2017-04-20T03:40:08.523Z,986.11
2017-04-20T03:41:09.128Z,986.09
2017-04-20T03:42:09.717Z,986.09
2017-04-20T03:43:10.307Z,986.12
2017-04-20T03:44:10.895Z,986.09
2017-04-20T03:45:11.486Z,986.09
2017-04-20T03:46:12.081Z,986.13
2017-04-20T03:47:12.667Z,986.19
2017-04-20T03:48:13.262Z,986.11
2017-04-20T03:49:13.874Z,986.19
2017-04-20T03:50:14.468Z,986.16
2017-04-20T03:51:15.057Z,986.18
2017-04-20T03:52:15.646Z,986.25
2017-04-20T03:53:16.237Z,986.25
2017-04-20T03:54:16.824Z,986.27
2017-04-20T03:55:17.416Z,986.27
2017-04-20T03:56:18.021Z,986.26
2017-04-20T03:57:18.654Z,986.30
2017-04-20T03:58:19.317Z,986.30
2017-04-20T03:59:19.979Z,986.30
2017-04-20T04:00:20.568Z,986.32
2017-04-20T04:01:21.156Z,986.32
2017-04-20T04:02:21.749Z,986.37
2017-04-20T04:03:22.335Z,986.35
2017-04-20T04:04:22.940Z,986.40
2017-04-20T04:05:23.528Z,986.38
2017-04-20T04:06:24.134Z,986.36
2017-04-20T04:07:24.722Z,986.39
2017-04-20T04:08:25.311Z,986.37
2017-04-20T04:09:25.916Z,986.36
2017-04-20T04:10:26.505Z,986.35
2017-04-20T04:11:27.095Z,986.33
2017-04-20T04:12:27.684Z,986.35
2017-04-20T04:13:28.282Z,986.37
2017-04-20T04:14:28.875Z,986.37
2017-04-20T04:15:29.462Z,986.36
2017-04-20T04:16:30.052Z,986.35
2017-04-20T04:17:30.644Z,986.34
2017-04-20T04:18:31.232Z,986.37
2017-04-20T04:19:31.821Z,986.39
2017-04-20T04:20:32.413Z,986.35
2017-04-20T04:21:33.008Z,986.36
2017-04-20T04:22:33.597Z,986.43
2017-04-20T04:23:34.201Z,986.38
2017-04-20T04:24:34.792Z,986.43
2017-04-20T04:25:35.384Z,986.47
2017-04-20T04:26:35.975Z,986.46
2017-04-20T04:27:36.564Z,986.50
2017-04-20T04:28:37.157Z,986.48
2017-04-20T04:29:37.748Z,986.48
2017-04-20T04:30:38.340Z,986.50
2017-04-20T04:31:38.947Z,986.51
2017-04-20T04:32:39.543Z,986.49
2017-04-20T04:33:40.153Z,986.47
2017-04-20T04:34:40.728Z,986.52
2017-04-20T04:35:41.320Z,986.52
2017-04-20T04:36:41.913Z,986.54
2017-04-20T04:37:42.511Z,986.51
2017-04-20T04:38:43.105Z,986.49
2017-04-20T04:39:43.695Z,986.54
2017-04-20T04:40:44.293Z,986.54
2017-04-20T04:41:44.882Z,986.57
2017-04-20T04:42:45.476Z,986.57
2017-04-20T04:43:46.135Z,986.58
2017-04-20T04:44:46.734Z,986.58
2017-04-20T04:45:47.331Z,986.55
2017-04-20T04:46:47.919Z,986.55
2017-04-20T04:47:48.512Z,986.58
2017-04-20T04:48:49.104Z,986.61
2017-04-20T04:49:49.717Z,986.59
2017-04-20T04:50:50.308Z,986.60
2017-04-20T04:51:50.905Z,986.60
2017-04-20T04:52:51.498Z,986.59
2017-04-20T04:53:52.106Z,986.63
2017-04-20T04:54:52.698Z,986.64
2017-04-20T04:55:53.296Z,986.64
2017-04-20T04:56:53.892Z,986.69
2017-04-20T04:57:54.481Z,986.70
2017-04-20T04:58:55.080Z,986.66
2017-04-20T04:59:55.669Z,986.62
2017-04-20T05:00:56.268Z,986.69
2017-04-20T05:01:56.860Z,986.73
2017-04-20T05:02:57.469Z,986.73
2017-04-20T05:03:58.065Z,986.76
2017-04-20T05:04:58.668Z,986.73
2017-04-20T05:05:59.259Z,986.79
2017-04-20T05:06:59.855Z,986.82
2017-04-20T05:08:00.452Z,986.87
2017-04-20T05:09:01.046Z,986.86
2017-04-20T05:10:01.644Z,986.87
2017-04-20T05:11:02.239Z,986.96
2017-04-20T05:12:02.837Z,987.00
2017-04-20T05:13:03.431Z,986.96
2017-04-20T05:14:04.094Z,986.98
2017-04-20T05:15:04.723Z,986.98
2017-04-20T05:16:05.341Z,987.03
2017-04-20T05:17:06.016Z,987.02
2017-04-20T05:18:06.612Z,987.02
2017-04-20T05:19:07.275Z,987.03
2017-04-20T05:20:07.874Z,987.04
2017-04-20T05:21:08.489Z,987.06
2017-04-20T05:22:09.087Z,987.07
2017-04-20T05:23:09.703Z,987.06
2017-04-20T05:24:10.369Z,987.11
2017-04-20T05:25:11.000Z,987.15
2017-04-20T05:26:11.616Z,987.18
2017-04-20T05:27:12.271Z,987.19
2017-04-20T05:28:12.934Z,987.20
2017-04-20T05:29:13.587Z,987.18
2017-04-20T05:30:14.217Z,987.17
2017-04-20T05:31:14.846Z,987.19
2017-04-20T05:32:15.473Z,987.19
2017-04-20T05:33:16.102Z,987.15
2017-04-20T05:34:16.702Z,987.11
2017-04-20T05:35:17.378Z,987.10
2017-04-20T05:36:18.059Z,987.09
2017-04-20T05:37:18.667Z,987.07
2017-04-20T05:38:19.341Z,987.11
2017-04-20T05:39:20.009Z,987.07
2017-04-20T05:40:20.681Z,987.13
2017-04-20T05:41:21.304Z,987.16
2017-04-20T05:42:21.987Z,987.17
2017-04-20T05:43:22.654Z,987.19
2017-04-20T05:44:23.256Z,987.21
2017-04-20T05:45:23.942Z,987.22
2017-04-20T05:46:24.568Z,987.24
2017-04-20T05:47:25.176Z,987.27
2017-04-20T05:48:25.807Z,987.34
2017-04-20T05:49:26.430Z,987.37
2017-04-20T05:50:27.033Z,987.31
2017-04-20T05:51:27.694Z,987.34
2017-04-20T05:52:28.324Z,987.35
2017-04-20T05:53:29.024Z,987.35
2017-04-20T05:54:29.661Z,987.35
2017-04-20T05:55:30.327Z,987.37
2017-04-20T05:56:30.977Z,987.35
2017-04-20T05:57:31.635Z,987.40
2017-04-20T05:58:32.311Z,987.41
2017-04-20T05:59:32.926Z,987.39
2017-04-20T06:00:33.529Z,987.38
2017-04-20T06:01:34.142Z,987.34
2017-04-20T06:02:34.747Z,987.35
2017-04-20T06:03:35.414Z,987.33
2017-04-20T06:04:36.042Z,987.36
2017-04-20T06:05:36.739Z,987.41
2017-04-20T06:06:37.414Z,987.38
2017-04-20T06:07:38.094Z,987.38
2017-04-20T06:08:38.787Z,987.43
2017-04-20T06:09:39.399Z,987.50
2017-04-20T06:10:40.004Z,987.45
2017-04-20T06:11:40.648Z,987.48
2017-04-20T06:12:41.357Z,987.48
2017-04-20T06:13:41.968Z,987.50
2017-04-20T06:14:42.579Z,987.49
2017-04-20T06:15:43.204Z,987.61
2017-04-20T06:16:43.829Z,987.58
2017-04-20T06:17:44.439Z,987.61
2017-04-20T06:18:45.048Z,987.62
2017-04-20T06:19:45.667Z,987.59
2017-04-20T06:20:46.274Z,987.69
2017-04-20T06:21:46.886Z,987.82
2017-04-20T06:22:47.496Z,987.73
2017-04-20T06:23:48.105Z,987.66
2017-04-20T06:24:48.716Z,987.69
2017-04-20T06:25:49.338Z,987.67
2017-04-20T06:26:49.949Z,987.67
2017-04-20T06:27:50.577Z,987.68
2017-04-20T06:28:51.184Z,987.72
2017-04-20T06:29:51.811Z,987.71
2017-04-20T06:30:52.427Z,987.76
2017-04-20T06:31:53.044Z,987.79
2017-04-20T06:32:53.670Z,987.78
2017-04-20T06:33:54.287Z,987.76
2017-04-20T06:34:54.913Z,987.82
2017-04-20T06:35:55.523Z,987.79
2017-04-20T06:36:56.133Z,987.85
2017-04-20T06:37:56.765Z,987.82
2017-04-20T06:38:57.379Z,987.91
2017-04-20T06:39:57.991Z,987.92
2017-04-20T06:40:58.619Z,987.90
2017-04-20T06:41:59.230Z,987.87
2017-04-20T06:42:59.841Z,987.89
2017-04-20T06:44:00.453Z,987.91
2017-04-20T06:45:01.063Z,987.91
2017-04-20T06:46:01.675Z,987.90
2017-04-20T06:47:02.295Z,987.97
2017-04-20T06:48:02.912Z,988.03
2017-04-20T06:49:03.522Z,988.01
2017-04-20T06:50:04.139Z,988.08
2017-04-20T06:51:04.766Z,988.07
2017-04-20T06:52:05.378Z,988.16
2017-04-20T06:53:05.996Z,988.34
2017-04-20T06:54:06.611Z,989.58
2017-04-20T06:55:07.219Z,991.49
2017-04-20T06:56:07.839Z,991.74
2017-04-20T06:57:08.447Z,991.75
2017-04-20T06:58:09.061Z,991.46
2017-04-20T06:59:09.675Z,991.54
2017-04-20T07:00:10.287Z,991.49
2017-04-20T07:01:10.901Z,991.49
2017-04-20T07:02:11.513Z,991.10
2017-04-20T07:03:12.130Z,991.24
2017-04-20T07:04:12.740Z,991.10
2017-04-20T07:05:13.360Z,991.25
2017-04-20T07:06:13.989Z,991.20
2017-04-20T07:07:14.602Z,991.25
2017-04-20T07:08:15.216Z,990.49
2017-04-20T07:09:15.844Z,988.89
2017-04-20T07:10:16.458Z,988.02
2017-04-20T07:11:17.073Z,987.99
2017-04-20T07:12:17.692Z,987.97
2017-04-20T07:13:18.309Z,987.97
2017-04-20T07:14:18.919Z,987.86
2017-04-20T07:15:19.538Z,987.90
2017-04-20T07:16:20.168Z,987.98
2017-04-20T07:17:20.780Z,987.99
2017-04-20T07:18:21.408Z,988.03
2017-04-20T07:19:22.022Z,988.03
2017-04-20T07:20:22.636Z,988.09
2017-04-20T07:21:23.256Z,988.02
2017-04-20T07:22:23.874Z,988.10
2017-04-20T07:23:24.487Z,988.09
2017-04-20T07:24:25.102Z,988.03
2017-04-20T07:25:25.719Z,988.08
2017-04-20T07:26:26.332Z,988.08
2017-04-20T07:27:26.946Z,988.13
2017-04-20T07:28:27.576Z,988.05
2017-04-20T07:29:28.195Z,987.97
2017-04-20T07:30:28.807Z,988.11
2017-04-20T07:31:29.422Z,988.03
2017-04-20T07:32:30.035Z,988.07
2017-04-20T07:33:30.652Z,988.12
2017-04-20T07:34:31.286Z,988.18
2017-04-20T07:35:31.898Z,988.03
2017-04-20T07:36:32.528Z,988.14
2017-04-20T07:37:33.142Z,988.10
2017-04-20T07:38:33.758Z,988.17
2017-04-20T07:39:34.373Z,988.10
2017-04-20T07:40:34.987Z,988.19
2017-04-20T07:41:35.601Z,988.22
2017-04-20T07:42:36.216Z,988.24
2017-04-20T07:43:37.069Z,988.15
2017-04-20T07:44:37.679Z,988.18
2017-04-20T07:45:38.295Z,988.15
2017-04-20T07:46:38.916Z,988.17
2017-04-20T07:47:39.545Z,988.20
2017-04-20T07:48:40.163Z,988.18
2017-04-20T07:49:40.777Z,988.19
2017-04-20T07:50:41.395Z,988.21
2017-04-20T07:51:42.011Z,988.23
2017-04-20T07:52:42.725Z,988.14
2017-04-20T07:53:43.347Z,988.11
2017-04-20T07:54:43.966Z,988.21
2017-04-20T07:55:44.579Z,988.27
2017-04-20T07:56:45.195Z,988.26
2017-04-20T07:57:45.810Z,987.83
2017-04-20T07:58:46.427Z,988.26
2017-04-20T07:59:47.058Z,988.05
2017-04-20T08:00:47.674Z,988.15
2017-04-20T08:01:48.486Z,988.22
2017-04-20T08:02:49.117Z,988.23
2017-04-20T08:03:49.732Z,988.26
2017-04-20T08:04:50.347Z,988.25
2017-04-20T08:05:50.965Z,988.29
2017-04-20T08:06:51.581Z,988.24
2017-04-20T08:07:52.197Z,988.25
2017-04-20T08:08:52.816Z,988.29
2017-04-20T08:09:53.438Z,988.39
2017-04-20T08:10:54.050Z,988.40
2017-04-20T08:11:54.667Z,988.28
2017-04-20T08:12:55.285Z,988.31
2017-04-20T08:13:55.902Z,988.40
2017-04-20T08:14:56.520Z,988.37
2017-04-20T08:15:57.139Z,988.35
2017-04-20T08:16:57.757Z,988.35
2017-04-20T08:17:58.395Z,988.37
2017-04-20T08:18:59.010Z,988.02
2017-04-20T08:19:59.629Z,988.23
2017-04-20T08:21:00.244Z,988.06
2017-04-20T08:22:00.858Z,988.51
2017-04-20T08:23:01.474Z,988.45
2017-04-20T08:24:02.356Z,988.54
2017-04-20T08:25:02.977Z,988.41
2017-04-20T08:26:03.591Z,988.46
2017-04-20T08:27:04.211Z,988.45
2017-04-20T08:28:04.824Z,988.41
2017-04-20T08:29:05.440Z,988.44
2017-04-20T08:30:06.057Z,988.41
2017-04-20T08:31:06.679Z,988.35
2017-04-20T08:32:07.293Z,988.45
2017-04-20T08:33:07.933Z,988.38
2017-04-20T08:34:08.795Z,988.38
2017-04-20T08:35:09.434Z,988.06
2017-04-20T08:36:10.048Z,988.08
2017-04-20T08:37:10.670Z,988.02
2017-04-20T08:38:11.304Z,988.41
2017-04-20T08:39:12.169Z,988.57
2017-04-20T08:40:12.788Z,988.31
2017-04-20T08:41:13.419Z,988.19
2017-04-20T08:42:14.034Z,988.40
2017-04-20T08:43:14.649Z,988.19
2017-04-20T08:44:15.264Z,988.61
2017-04-20T08:45:15.879Z,988.08
2017-04-20T08:46:16.493Z,988.21
2017-04-20T08:47:17.122Z,988.20
2017-04-20T08:48:17.751Z,988.17
2017-04-20T08:49:18.364Z,988.23
2017-04-20T08:50:18.975Z,988.69
2017-04-20T08:51:19.589Z,988.17
2017-04-20T08:52:20.206Z,988.54
2017-04-20T08:53:20.818Z,988.55
2017-04-20T08:54:21.685Z,988.56
2017-04-20T08:55:22.315Z,988.44
2017-04-20T08:56:22.909Z,988.54
2017-04-20T08:57:23.538Z,988.54
2017-04-20T08:58:24.152Z,988.61
2017-04-20T08:59:24.789Z,988.53
2017-04-20T09:00:25.399Z,988.50
2017-04-20T09:01:26.014Z,988.46
2017-04-20T09:02:26.645Z,988.41
2017-04-20T09:03:27.277Z,988.45
2017-04-20T09:04:28.149Z,988.44
2017-04-20T09:05:28.769Z,988.42
2017-04-20T09:06:29.383Z,988.43
2017-04-20T09:07:30.006Z,988.45
2017-04-20T09:08:30.625Z,988.43
2017-04-20T09:09:31.240Z,988.39
2017-04-20T09:10:31.856Z,988.53
2017-04-20T09:11:32.476Z,988.50
2017-04-20T09:12:33.094Z,988.27
2017-04-20T09:13:33.729Z,988.32
2017-04-20T09:14:34.611Z,988.61
2017-04-20T09:15:35.241Z,988.21
2017-04-20T09:16:35.851Z,988.02
2017-04-20T09:17:36.465Z,988.58
2017-04-20T09:18:37.082Z,988.43
2017-04-20T09:19:37.714Z,988.56
2017-04-20T09:20:38.332Z,988.48
2017-04-20T09:21:38.950Z,988.41
2017-04-20T09:22:39.587Z,988.01
2017-04-20T09:23:40.219Z,988.45
2017-04-20T09:24:41.104Z,988.40
2017-04-20T09:25:41.743Z,988.42
2017-04-20T09:26:42.362Z,988.40
2017-04-20T09:27:42.981Z,987.96
2017-04-20T09:28:43.614Z,987.98
2017-04-20T09:29:44.485Z,988.08
2017-04-20T09:30:45.104Z,988.08
2017-04-20T09:31:45.715Z,988.28
2017-04-20T09:32:46.330Z,988.65
2017-04-20T09:33:46.960Z,988.20
2017-04-20T09:34:47.575Z,988.63
2017-04-20T09:35:48.195Z,988.27
2017-04-20T09:36:48.813Z,988.30
2017-04-20T09:37:49.424Z,988.36
2017-04-20T09:38:50.042Z,988.33
2017-04-20T09:39:50.650Z,988.34
2017-04-20T09:40:51.262Z,988.42
2017-04-20T09:41:51.872Z,988.44
2017-04-20T09:42:52.592Z,988.54
2017-04-20T09:43:53.199Z,988.49
2017-04-20T09:44:54.063Z,988.49
2017-04-20T09:45:54.678Z,988.46
2017-04-20T09:46:55.301Z,988.59
2017-04-20T09:47:55.909Z,988.56
2017-04-20T09:48:56.518Z,988.65
2017-04-20T09:49:57.131Z,988.56
2017-04-20T09:50:57.734Z,988.55
2017-04-20T09:51:58.338Z,988.51
2017-04-20T09:52:58.943Z,988.59
2017-04-20T09:53:59.565Z,988.43
2017-04-20T09:55:00.437Z,988.50
2017-04-20T09:56:01.047Z,988.47
2017-04-20T09:57:01.656Z,988.64
2017-04-20T09:58:02.515Z,988.60
2017-04-20T09:59:03.115Z,988.67
2017-04-20T10:00:03.721Z,988.52
2017-04-20T10:01:04.327Z,988.64
2017-04-20T10:02:04.931Z,988.83
2017-04-20T10:03:05.791Z,988.80
2017-04-20T10:04:06.401Z,988.69
2017-04-20T10:05:07.330Z,988.27
2017-04-20T10:06:08.185Z,988.26
2017-04-20T10:07:08.791Z,988.35
2017-04-20T10:08:09.657Z,988.34
2017-04-20T10:09:10.262Z,988.34
2017-04-20T10:10:10.875Z,988.47
2017-04-20T10:11:11.554Z,988.37
2017-04-20T10:12:12.159Z,988.38
2017-04-20T10:13:12.771Z,988.43
2017-04-20T10:14:13.400Z,988.50
2017-04-20T10:15:14.003Z,988.44
2017-04-20T10:16:14.624Z,988.53
2017-04-20T10:17:15.230Z,988.59
2017-04-20T10:18:15.835Z,988.65
2017-04-20T10:19:16.441Z,988.56
2017-04-20T10:20:17.053Z,988.56
2017-04-20T10:21:17.656Z,988.50
2017-04-20T10:22:18.261Z,988.60
2017-04-20T10:23:18.871Z,988.49
2017-04-20T10:24:19.493Z,988.52
2017-04-20T10:25:20.098Z,988.52
2017-04-20T10:26:20.722Z,988.51
2017-04-20T10:27:21.322Z,988.55
2017-04-20T10:28:21.933Z,988.47
2017-04-20T10:29:22.536Z,988.43
2017-04-20T10:30:23.145Z,988.45
2017-04-20T10:31:23.750Z,988.46
2017-04-20T10:32:24.353Z,988.40
2017-04-20T10:33:24.958Z,988.40
2017-04-20T10:34:25.564Z,988.39
2017-04-20T10:35:26.167Z,988.37
2017-04-20T10:36:26.774Z,988.37
2017-04-20T10:37:27.380Z,988.35
2017-04-20T10:38:27.984Z,988.33
2017-04-20T10:39:28.588Z,988.39
2017-04-20T10:40:29.192Z,988.41
2017-04-20T10:41:29.798Z,988.38
2017-04-20T10:42:30.410Z,988.43
2017-04-20T10:43:31.012Z,988.51
2017-04-20T10:44:31.616Z,988.38
2017-04-20T10:45:32.219Z,988.48
2017-04-20T10:46:32.823Z,988.53
2017-04-20T10:47:33.435Z,988.47
2017-04-20T10:48:34.042Z,988.36
2017-04-20T10:49:34.643Z,988.53
2017-04-20T10:50:35.263Z,988.36
2017-04-20T10:51:35.867Z,988.37
2017-04-20T10:52:36.475Z,988.37
2017-04-20T10:53:37.080Z,988.31
2017-04-20T10:54:37.679Z,988.28
2017-04-20T10:55:38.287Z,988.23
2017-04-20T10:56:38.887Z,988.15
2017-04-20T10:57:39.490Z,988.22
2017-04-20T10:58:40.092Z,988.27
2017-04-20T10:59:40.700Z,988.34
2017-04-20T11:00:41.301Z,988.32
2017-04-20T11:01:41.908Z,988.24
2017-04-20T11:02:42.526Z,988.23
2017-04-20T11:03:43.151Z,988.31
2017-04-20T11:04:43.752Z,988.30
2017-04-20T11:05:44.357Z,988.26
2017-04-20T11:06:44.963Z,988.25
2017-04-20T11:07:45.567Z,988.25
2017-04-20T11:08:46.171Z,988.25
2017-04-20T11:09:46.795Z,988.28
2017-04-20T11:10:47.395Z,988.30
2017-04-20T11:11:48.018Z,988.25
2017-04-20T11:12:48.617Z,988.18
2017-04-20T11:13:49.229Z,988.19
2017-04-20T11:14:49.826Z,988.18
2017-04-20T11:15:50.429Z,988.14
2017-04-20T11:16:51.035Z,988.22
2017-04-20T11:17:51.641Z,988.13
2017-04-20T11:18:52.247Z,988.10
2017-04-20T11:19:52.849Z,988.10
2017-04-20T11:20:53.451Z,988.06
2017-04-20T11:21:54.055Z,988.06
2017-04-20T11:22:54.708Z,987.98
2017-04-20T11:23:55.310Z,987.92
2017-04-20T11:24:55.919Z,988.00
2017-04-20T11:25:56.522Z,988.09
2017-04-20T11:26:57.143Z,988.05
2017-04-20T11:27:57.745Z,988.08
2017-04-20T11:28:58.347Z,988.14
2017-04-20T11:29:58.952Z,988.18
2017-04-20T11:30:59.557Z,988.14
2017-04-20T11:32:00.174Z,988.22
2017-04-20T11:33:00.778Z,988.17
2017-04-20T11:34:01.380Z,988.13
2017-04-20T11:35:01.984Z,988.24
2017-04-20T11:36:02.642Z,988.18
2017-04-20T11:37:03.247Z,988.19
2017-04-20T11:38:03.846Z,988.21
2017-04-20T11:39:04.452Z,988.23
2017-04-20T11:40:05.075Z,988.08
2017-04-20T11:41:05.685Z,988.17
2017-04-20T11:42:06.492Z,988.13
2017-04-20T11:43:07.094Z,988.05
2017-04-20T11:44:07.698Z,988.05
2017-04-20T11:45:08.302Z,988.19
2017-04-20T11:46:08.907Z,988.05
2017-04-20T11:47:09.513Z,988.10
2017-04-20T11:48:10.120Z,988.06
2017-04-20T11:49:10.721Z,988.08
2017-04-20T11:50:11.323Z,988.13
2017-04-20T11:51:11.931Z,988.20
2017-04-20T11:52:12.532Z,988.12
2017-04-20T11:53:13.141Z,988.19
2017-04-20T11:54:13.738Z,988.15
2017-04-20T11:55:14.341Z,988.21
2017-04-20T11:56:14.965Z,988.10
2017-04-20T11:57:15.569Z,988.12
2017-04-20T11:58:16.169Z,988.17
2017-04-20T11:59:16.777Z,988.20
2017-04-20T12:00:17.377Z,988.13
2017-04-20T12:01:17.981Z,988.12
2017-04-20T12:02:18.581Z,988.06
2017-04-20T12:03:19.185Z,988.19
2017-04-20T12:04:20.087Z,988.11
2017-04-20T12:05:20.691Z,988.25
2017-04-20T12:06:21.294Z,988.18
2017-04-20T12:07:21.902Z,988.14
2017-04-20T12:08:22.526Z,988.23
2017-04-20T12:09:23.130Z,988.26
2017-04-20T12:10:23.732Z,988.19
2017-04-20T12:11:24.338Z,988.19
2017-04-20T12:12:24.944Z,988.22
2017-04-20T12:13:25.543Z,988.23
2017-04-20T12:14:26.151Z,988.17
2017-04-20T12:15:26.753Z,988.20
2017-04-20T12:16:27.371Z,988.11
2017-04-20T12:17:28.274Z,988.10
2017-04-20T12:18:28.876Z,988.13
2017-04-20T12:19:29.476Z,988.07
2017-04-20T12:20:30.083Z,988.15
2017-04-20T12:21:30.690Z,987.91
2017-04-20T12:22:31.292Z,988.03
2017-04-20T12:23:31.910Z,988.05
2017-04-20T12:24:32.526Z,988.06
2017-04-20T12:25:33.143Z,988.00
2017-04-20T12:26:33.995Z,988.16
2017-04-20T12:27:34.597Z,988.31
2017-04-20T12:28:35.206Z,988.10
2017-04-20T12:29:35.806Z,988.11
2017-04-20T12:30:36.413Z,988.12
2017-04-20T12:31:37.014Z,988.07
2017-04-20T12:32:37.622Z,988.10
2017-04-20T12:33:38.228Z,988.14
2017-04-20T12:34:38.838Z,988.15
2017-04-20T12:35:39.440Z,988.18
2017-04-20T12:36:40.046Z,988.16